Time;durP1;ratioP1;P1;durP2;ratioP2;P2;SDS_P1;SDS_P2;PMS_P1;PMS_P2;Temp;Humidity;BMP_temperature;BMP_pressure;BME280_temperature;BME280_humidity;BME280_pressure;Samples;Min_cycle;Max_cycle;Signal;HPM_P1;HPM_P2
2023/03/04 00:01:53;;;;;;;9.40;8.90;;;;;;;;;;5012544;28;20021;-61
2023/03/04 00:04:18;;;;;;;8.70;8.30;;;;;;;;;;5008445;28;20500;-61
2023/03/04 00:06:44;;;;;;;9.23;8.73;;;;;;;;;;5014651;28;20026;-60
2023/03/04 00:09:09;;;;;;;9.40;8.90;;;;;;;;;;5014531;28;20014;-60
2023/03/04 00:11:35;;;;;;;8.70;8.30;;;;;;;;;;5014872;28;20014;-61
2023/03/04 00:14:00;;;;;;;9.10;8.70;;;;;;;;;;5009622;28;20074;-60
2023/03/04 00:16:28;;;;;;;8.95;8.55;;;;;;;;;;5002592;28;20019;-61
2023/03/04 00:18:55;;;;;;;9.05;8.55;;;;;;;;;;5002589;28;20128;-60
2023/03/04 00:21:20;;;;;;;9.02;8.63;;;;;;;;;;5016571;28;20024;-60
2023/03/04 00:23:46;;;;;;;9.25;8.75;;;;;;;;;;5019024;28;20022;-60
2023/03/04 00:26:12;;;;;;;8.55;8.15;;;;;;;;;;5011499;28;20030;-60
2023/03/04 00:28:38;;;;;;;9.15;8.65;;;;;;;;;;5014079;28;20073;-60
2023/03/04 00:31:05;;;;;;;8.93;8.52;;;;;;;;;;5004194;28;20026;-61
2023/03/04 00:33:30;;;;;;;8.82;8.43;;;;;;;;;;5014478;28;20049;-61
2023/03/04 00:35:56;;;;;;;9.27;8.77;;;;;;;;;;5013978;28;20684;-60
2023/03/04 00:38:21;;;;;;;8.80;8.40;;;;;;;;;;5014219;28;20105;-60
2023/03/04 00:40:46;;;;;;;8.50;8.10;;;;;;;;;;5014387;28;20039;-60
2023/03/04 00:43:12;;;;;;;8.60;8.20;;;;;;;;;;5014161;28;20022;-60
2023/03/04 00:45:37;;;;;;;9.60;9.10;;;;;;;;;;5012440;28;20385;-60
2023/03/04 00:48:02;;;;;;;9.20;8.70;;;;;;;;;;5002149;28;20037;-62
2023/03/04 00:50:28;;;;;;;9.32;8.82;;;;;;;;;;5014029;28;20707;-61
2023/03/04 00:52:53;;;;;;;9.07;8.68;;;;;;;;;;5014033;28;20025;-61
2023/03/04 00:55:18;;;;;;;8.95;8.52;;;;;;;;;;5013898;28;20485;-61
2023/03/04 00:57:43;;;;;;;9.20;8.70;;;;;;;;;;5016365;28;20020;-60
2023/03/04 01:00:09;;;;;;;9.65;9.15;;;;;;;;;;5015448;28;20025;-62
2023/03/04 01:02:34;;;;;;;9.30;8.80;;;;;;;;;;5014476;28;20076;-62
2023/03/04 01:05:00;;;;;;;8.65;8.25;;;;;;;;;;5015411;28;20101;-61
2023/03/04 01:07:25;;;;;;;9.35;8.85;;;;;;;;;;5014975;28;20023;-62
2023/03/04 01:09:50;;;;;;;9.00;8.60;;;;;;;;;;5015312;28;20022;-61
2023/03/04 01:12:16;;;;;;;9.13;8.70;;;;;;;;;;5007607;28;20026;-62
2023/03/04 01:14:41;;;;;;;8.90;8.50;;;;;;;;;;5008528;28;20492;-61
2023/03/04 01:17:06;;;;;;;9.60;9.10;;;;;;;;;;5009049;28;20121;-60
2023/03/04 01:19:31;;;;;;;8.70;8.30;;;;;;;;;;5008266;28;20473;-64
2023/03/04 01:21:57;;;;;;;8.88;8.48;;;;;;;;;;5018714;28;20025;-62
2023/03/04 01:24:22;;;;;;;9.10;8.70;;;;;;;;;;5014114;28;20053;-62
2023/03/04 01:26:47;;;;;;;8.85;8.45;;;;;;;;;;5012315;28;20080;-61
2023/03/04 01:29:13;;;;;;;9.40;8.90;;;;;;;;;;5012976;28;20046;-62
2023/03/04 01:31:38;;;;;;;8.75;8.35;;;;;;;;;;5013304;28;20013;-61
2023/03/04 01:34:03;;;;;;;9.73;9.23;;;;;;;;;;5012896;28;20071;-61
2023/03/04 01:36:28;;;;;;;8.80;8.40;;;;;;;;;;5003168;28;20064;-61
2023/03/04 01:38:54;;;;;;;9.38;8.88;;;;;;;;;;5012687;28;20062;-61
2023/03/04 01:41:22;;;;;;;9.23;8.73;;;;;;;;;;5013229;28;20049;-61
2023/03/04 01:43:48;;;;;;;8.90;8.50;;;;;;;;;;5013501;28;20385;-61
2023/03/04 01:46:16;;;;;;;9.10;8.65;;;;;;;;;;5012750;28;20029;-61
2023/03/04 01:48:43;;;;;;;9.35;8.85;;;;;;;;;;5012747;28;20477;-61
2023/03/04 01:51:13;;;;;;;8.90;8.50;;;;;;;;;;5012006;28;20481;-61
2023/03/04 01:53:39;;;;;;;8.90;8.50;;;;;;;;;;5002447;28;20204;-61
2023/03/04 01:56:13;;;;;;;9.30;8.80;;;;;;;;;;5013093;28;20036;-61
2023/03/04 01:58:39;;;;;;;9.23;8.75;;;;;;;;;;5006694;28;20026;-61
2023/03/04 02:01:04;;;;;;;9.90;9.38;;;;;;;;;;5011343;28;20388;-60
2023/03/04 02:03:29;;;;;;;9.70;9.20;;;;;;;;;;5012477;28;20469;-62
2023/03/04 02:05:55;;;;;;;8.90;8.50;;;;;;;;;;5012730;28;20022;-61
2023/03/04 02:08:21;;;;;;;8.73;8.32;;;;;;;;;;5010625;28;20083;-61
2023/03/04 02:10:46;;;;;;;9.15;8.70;;;;;;;;;;5012758;28;20025;-61
2023/03/04 02:13:12;;;;;;;9.07;8.68;;;;;;;;;;5012576;28;20022;-61
2023/03/04 02:15:37;;;;;;;9.52;9.02;;;;;;;;;;5012283;28;20046;-61
2023/03/04 02:18:11;;;;;;;8.85;8.45;;;;;;;;;;5013057;28;20030;-61
2023/03/04 02:20:48;;;;;;;8.95;8.55;;;;;;;;;;5012871;28;20030;-61
2023/03/04 02:23:16;;;;;;;8.85;8.45;;;;;;;;;;5025146;28;20431;-61
2023/03/04 02:25:48;;;;;;;9.82;9.32;;;;;;;;;;5004080;28;20021;-62
2023/03/04 02:28:13;;;;;;;8.68;8.27;;;;;;;;;;5012105;28;20042;-61
2023/03/04 02:30:38;;;;;;;9.10;8.70;;;;;;;;;;5012674;28;20045;-60
2023/03/04 02:33:04;;;;;;;9.52;9.02;;;;;;;;;;5012006;28;20014;-60
2023/03/04 02:35:29;;;;;;;9.30;8.80;;;;;;;;;;5012222;28;20461;-60
2023/03/04 02:37:54;;;;;;;9.23;8.73;;;;;;;;;;5011863;28;20091;-61
2023/03/04 02:40:22;;;;;;;8.95;8.55;;;;;;;;;;5012424;28;20072;-61
2023/03/04 02:42:47;;;;;;;8.93;8.52;;;;;;;;;;5001105;28;20374;-61
2023/03/04 02:45:31;;;;;;;9.43;8.93;;;;;;;;;;5010253;28;20033;-61
2023/03/04 02:47:57;;;;;;;9.30;8.80;;;;;;;;;;5011963;28;20025;-60
2023/03/04 02:50:22;;;;;;;8.90;8.50;;;;;;;;;;5011979;28;20036;-61
2023/03/04 02:52:47;;;;;;;8.52;8.13;;;;;;;;;;5012339;28;20025;-61
2023/03/04 02:55:13;;;;;;;8.50;8.10;;;;;;;;;;5012020;28;20022;-61
2023/03/04 02:57:38;;;;;;;8.65;8.25;;;;;;;;;;5012321;28;20026;-61
2023/03/04 03:00:03;;;;;;;9.27;8.77;;;;;;;;;;5006333;28;20025;-61
2023/03/04 03:02:29;;;;;;;9.32;8.82;;;;;;;;;;5015131;28;20026;-61
2023/03/04 03:04:54;;;;;;;8.90;8.50;;;;;;;;;;5015510;28;20029;-61
2023/03/04 03:07:19;;;;;;;9.55;9.05;;;;;;;;;;5010335;28;20034;-61
2023/03/04 03:09:45;;;;;;;9.35;8.85;;;;;;;;;;5008810;28;20042;-61
2023/03/04 03:12:10;;;;;;;9.30;8.80;;;;;;;;;;5015474;28;20113;-61
2023/03/04 03:14:35;;;;;;;9.35;8.85;;;;;;;;;;5015718;28;20046;-61
2023/03/04 03:17:00;;;;;;;9.68;9.18;;;;;;;;;;5016819;28;20100;-61
2023/03/04 03:19:26;;;;;;;8.93;8.50;;;;;;;;;;5016558;28;20053;-60
2023/03/04 03:21:51;;;;;;;9.20;8.70;;;;;;;;;;5016416;28;20025;-62
2023/03/04 03:24:17;;;;;;;9.27;8.77;;;;;;;;;;5015535;28;20029;-60
2023/03/04 03:26:42;;;;;;;9.80;9.25;;;;;;;;;;5013795;28;20528;-61
2023/03/04 03:29:07;;;;;;;9.52;9.02;;;;;;;;;;5015185;28;20057;-60
2023/03/04 03:31:32;;;;;;;8.75;8.35;;;;;;;;;;5015621;28;20477;-60
2023/03/04 03:33:58;;;;;;;9.25;8.75;;;;;;;;;;5015585;28;20417;-60
2023/03/04 03:36:23;;;;;;;9.20;8.70;;;;;;;;;;5015609;28;20506;-62
2023/03/04 03:38:48;;;;;;;9.45;8.95;;;;;;;;;;5015014;28;20145;-60
2023/03/04 03:41:14;;;;;;;9.68;9.18;;;;;;;;;;5015104;28;20033;-62
2023/03/04 03:43:39;;;;;;;8.65;8.25;;;;;;;;;;5014301;28;20013;-62
2023/03/04 03:46:05;;;;;;;9.65;9.15;;;;;;;;;;5014249;28;20026;-62
2023/03/04 03:48:30;;;;;;;8.60;8.20;;;;;;;;;;5015466;28;20100;-62
2023/03/04 03:50:56;;;;;;;9.48;8.98;;;;;;;;;;5015125;28;20125;-61
2023/03/04 03:53:21;;;;;;;9.00;8.60;;;;;;;;;;5014987;28;20485;-61
2023/03/04 03:55:46;;;;;;;9.13;8.70;;;;;;;;;;5015334;28;20021;-61
2023/03/04 03:58:12;;;;;;;9.00;8.60;;;;;;;;;;5012209;28;20073;-61
2023/03/04 04:00:37;;;;;;;9.00;8.60;;;;;;;;;;5010652;28;20052;-60
2023/03/04 04:03:03;;;;;;;9.18;8.68;;;;;;;;;;5014011;28;20376;-61
2023/03/04 04:05:28;;;;;;;9.30;8.80;;;;;;;;;;5012005;28;20030;-66
2023/03/04 04:07:53;;;;;;;9.80;9.30;;;;;;;;;;5013504;28;20022;-60
2023/03/04 04:10:19;;;;;;;9.63;9.13;;;;;;;;;;5014568;28;20048;-61
2023/03/04 04:12:44;;;;;;;8.85;8.40;;;;;;;;;;5013943;28;20018;-61
2023/03/04 04:15:11;;;;;;;8.68;8.27;;;;;;;;;;5014469;28;20021;-61
2023/03/04 04:17:36;;;;;;;9.10;8.60;;;;;;;;;;5014492;28;20033;-61
2023/03/04 04:20:01;;;;;;;9.52;9.02;;;;;;;;;;4996498;28;20112;-61
2023/03/04 04:22:27;;;;;;;9.23;8.75;;;;;;;;;;5014993;28;20026;-60
2023/03/04 04:24:52;;;;;;;8.88;8.48;;;;;;;;;;5013645;28;20021;-61
2023/03/04 04:27:17;;;;;;;9.40;8.90;;;;;;;;;;5013741;28;20030;-61
2023/03/04 04:29:43;;;;;;;9.75;9.25;;;;;;;;;;5013333;28;20136;-60
2023/03/04 04:32:08;;;;;;;9.82;9.32;;;;;;;;;;5014155;28;20022;-61
2023/03/04 04:34:33;;;;;;;8.93;8.52;;;;;;;;;;5014355;28;20768;-60
2023/03/04 04:36:59;;;;;;;9.48;8.98;;;;;;;;;;5008825;28;20033;-61
2023/03/04 04:39:24;;;;;;;9.65;9.13;;;;;;;;;;5012746;28;20350;-61
2023/03/04 04:41:49;;;;;;;9.25;8.75;;;;;;;;;;5002437;28;20456;-61
2023/03/04 04:44:15;;;;;;;10.00;9.40;;;;;;;;;;5013701;28;20469;-61
2023/03/04 04:46:41;;;;;;;9.38;8.88;;;;;;;;;;5013600;28;20536;-61
2023/03/04 04:49:06;;;;;;;10.02;9.43;;;;;;;;;;5014063;28;20099;-61
2023/03/04 04:51:31;;;;;;;8.60;8.20;;;;;;;;;;5014008;28;20049;-61
2023/03/04 04:53:58;;;;;;;9.10;8.60;;;;;;;;;;5013522;28;20025;-63
2023/03/04 04:56:25;;;;;;;9.85;9.35;;;;;;;;;;5013176;28;20374;-61
2023/03/04 04:58:50;;;;;;;9.68;9.18;;;;;;;;;;5013691;28;20033;-61
2023/03/04 05:01:16;;;;;;;8.65;8.25;;;;;;;;;;5003767;28;20034;-61
2023/03/04 05:03:41;;;;;;;9.48;8.98;;;;;;;;;;5012764;28;20486;-60
2023/03/04 05:06:08;;;;;;;9.75;9.25;;;;;;;;;;5005562;28;20445;-60
2023/03/04 05:08:33;;;;;;;9.60;9.10;;;;;;;;;;5012233;28;20097;-61
2023/03/04 05:10:59;;;;;;;9.65;9.15;;;;;;;;;;5012018;28;20161;-61
2023/03/04 05:13:25;;;;;;;9.57;9.07;;;;;;;;;;5012823;28;20045;-61
2023/03/04 05:15:52;;;;;;;9.40;8.95;;;;;;;;;;5013397;28;20026;-60
2023/03/04 05:18:17;;;;;;;9.30;8.80;;;;;;;;;;5012497;28;20028;-61
2023/03/04 05:20:42;;;;;;;10.38;9.77;;;;;;;;;;5011836;28;20014;-60
2023/03/04 05:23:08;;;;;;;9.57;9.07;;;;;;;;;;5013026;28;20036;-61
2023/03/04 05:25:33;;;;;;;8.77;8.38;;;;;;;;;;5011729;28;20504;-62
2023/03/04 05:28:00;;;;;;;8.70;8.30;;;;;;;;;;5011806;28;20061;-62
2023/03/04 05:30:27;;;;;;;8.98;8.55;;;;;;;;;;5013212;28;20042;-62
2023/03/04 05:32:52;;;;;;;9.20;8.70;;;;;;;;;;5012958;28;20112;-62
2023/03/04 05:35:18;;;;;;;8.40;8.00;;;;;;;;;;5003638;28;20386;-62
2023/03/04 05:37:43;;;;;;;9.18;8.68;;;;;;;;;;5012395;28;20022;-61
2023/03/04 05:40:09;;;;;;;8.82;8.43;;;;;;;;;;5012849;28;20025;-61
2023/03/04 05:42:34;;;;;;;9.13;8.63;;;;;;;;;;5013124;28;20025;-62
2023/03/04 05:44:59;;;;;;;9.63;9.13;;;;;;;;;;5011388;28;20030;-61
2023/03/04 05:47:24;;;;;;;9.00;8.60;;;;;;;;;;5012504;28;20037;-61
2023/03/04 05:49:50;;;;;;;8.40;8.00;;;;;;;;;;5013401;28;20060;-61
2023/03/04 05:52:15;;;;;;;8.82;8.43;;;;;;;;;;5012367;28;20021;-63
2023/03/04 05:54:40;;;;;;;9.30;8.85;;;;;;;;;;5011394;28;20025;-61
2023/03/04 05:57:06;;;;;;;9.20;8.80;;;;;;;;;;5001066;28;20021;-63
2023/03/04 05:59:31;;;;;;;9.23;8.82;;;;;;;;;;5012601;28;20045;-60
2023/03/04 06:01:56;;;;;;;9.10;8.70;;;;;;;;;;5007564;28;20117;-61
2023/03/04 06:04:21;;;;;;;8.75;8.35;;;;;;;;;;5012890;28;20094;-61
2023/03/04 06:06:47;;;;;;;8.95;8.55;;;;;;;;;;5012602;28;20385;-61
2023/03/04 06:09:13;;;;;;;9.23;8.82;;;;;;;;;;5012507;28;20022;-61
2023/03/04 06:11:38;;;;;;;9.20;8.80;;;;;;;;;;5005369;28;20042;-61
2023/03/04 06:14:03;;;;;;;9.52;9.13;;;;;;;;;;5008671;28;20520;-61
2023/03/04 06:16:29;;;;;;;9.23;8.82;;;;;;;;;;5011285;28;20033;-61
2023/03/04 06:18:54;;;;;;;9.85;9.45;;;;;;;;;;5010802;28;20018;-61
2023/03/04 06:21:19;;;;;;;10.48;9.98;;;;;;;;;;5017355;28;20513;-61
2023/03/04 06:23:45;;;;;;;9.73;9.32;;;;;;;;;;5012615;28;20033;-61
2023/03/04 06:26:14;;;;;;;9.75;9.35;;;;;;;;;;5012609;28;20018;-62
2023/03/04 06:28:39;;;;;;;9.90;9.50;;;;;;;;;;5012014;28;20050;-61
2023/03/04 06:31:05;;;;;;;10.50;10.00;;;;;;;;;;5003062;28;20033;-62
2023/03/04 06:33:30;;;;;;;9.70;9.30;;;;;;;;;;5000283;28;20101;-61
2023/03/04 06:35:55;;;;;;;9.90;9.50;;;;;;;;;;5006552;28;20068;-60
2023/03/04 06:38:21;;;;;;;9.80;9.40;;;;;;;;;;5005631;28;20021;-61
2023/03/04 06:40:46;;;;;;;10.13;9.73;;;;;;;;;;5010472;28;20022;-61
2023/03/04 06:43:11;;;;;;;10.05;9.65;;;;;;;;;;5012314;28;20029;-60
2023/03/04 06:45:37;;;;;;;9.90;9.50;;;;;;;;;;5005843;28;20108;-61
2023/03/04 06:48:03;;;;;;;10.00;9.60;;;;;;;;;;5011544;28;20037;-60
2023/03/04 06:50:28;;;;;;;10.05;9.65;;;;;;;;;;5009302;28;20033;-62
2023/03/04 06:52:55;;;;;;;10.43;9.93;;;;;;;;;;5009273;28;20451;-62
2023/03/04 06:55:20;;;;;;;10.27;9.88;;;;;;;;;;5006921;28;20033;-62
2023/03/04 06:57:45;;;;;;;10.40;9.90;;;;;;;;;;4995229;28;20025;-61
2023/03/04 07:00:11;;;;;;;10.55;10.05;;;;;;;;;;5011005;28;20392;-61
2023/03/04 07:02:36;;;;;;;10.40;9.90;;;;;;;;;;5011570;28;20052;-60
2023/03/04 07:05:01;;;;;;;10.70;10.20;;;;;;;;;;5005700;28;20025;-61
2023/03/04 07:07:27;;;;;;;10.60;10.10;;;;;;;;;;5011145;28;20044;-61
2023/03/04 07:09:52;;;;;;;10.38;9.90;;;;;;;;;;5011254;28;20096;-60
2023/03/04 07:12:17;;;;;;;10.15;9.75;;;;;;;;;;5009531;28;20026;-62
2023/03/04 07:14:42;;;;;;;10.38;9.90;;;;;;;;;;5011500;28;20097;-60
2023/03/04 07:17:08;;;;;;;10.68;10.18;;;;;;;;;;5011261;28;20406;-61
2023/03/04 07:19:33;;;;;;;10.60;10.10;;;;;;;;;;5015185;28;20029;-62
2023/03/04 07:21:58;;;;;;;10.00;9.60;;;;;;;;;;5002493;28;20030;-61
2023/03/04 07:24:25;;;;;;;10.13;9.73;;;;;;;;;;5008876;28;20037;-66
2023/03/04 07:26:50;;;;;;;10.82;10.32;;;;;;;;;;5001546;28;20775;-60
2023/03/04 07:29:15;;;;;;;10.93;10.43;;;;;;;;;;5010935;28;20053;-61
2023/03/04 07:31:41;;;;;;;10.50;10.00;;;;;;;;;;4993721;28;20026;-62
2023/03/04 07:34:08;;;;;;;10.45;9.95;;;;;;;;;;5011498;28;20023;-62
2023/03/04 07:36:34;;;;;;;10.15;9.75;;;;;;;;;;5008026;28;20030;-61
2023/03/04 07:39:01;;;;;;;10.60;10.10;;;;;;;;;;5001756;28;20030;-61
2023/03/04 07:41:28;;;;;;;10.75;10.25;;;;;;;;;;5009051;28;20026;-60
2023/03/04 07:43:54;;;;;;;10.43;9.93;;;;;;;;;;5011200;28;20389;-62
2023/03/04 07:46:19;;;;;;;10.20;9.80;;;;;;;;;;5011969;28;20535;-60
2023/03/04 07:48:45;;;;;;;10.43;9.95;;;;;;;;;;5013512;28;20102;-61
2023/03/04 07:51:17;;;;;;;11.00;10.50;;;;;;;;;;5015014;28;20026;-61
2023/03/04 07:53:44;;;;;;;10.85;10.35;;;;;;;;;;5009164;28;20037;-61
2023/03/04 07:56:13;;;;;;;10.52;10.02;;;;;;;;;;5002589;28;20026;-61
2023/03/04 07:58:39;;;;;;;10.85;10.35;;;;;;;;;;5014836;28;20026;-61
2023/03/04 08:01:08;;;;;;;10.48;9.98;;;;;;;;;;5014834;28;20481;-61
2023/03/04 08:03:33;;;;;;;9.93;9.52;;;;;;;;;;5014498;28;20052;-60
2023/03/04 08:05:59;;;;;;;10.30;9.83;;;;;;;;;;5014479;28;20030;-63
2023/03/04 08:08:24;;;;;;;10.10;9.70;;;;;;;;;;5007686;28;20271;-61
2023/03/04 08:10:49;;;;;;;10.13;9.73;;;;;;;;;;5014970;28;20079;-61
2023/03/04 08:13:14;;;;;;;10.57;10.07;;;;;;;;;;5013508;28;20014;-60
2023/03/04 08:15:41;;;;;;;11.18;10.68;;;;;;;;;;5013075;28;20377;-62
2023/03/04 08:18:06;;;;;;;10.50;10.00;;;;;;;;;;5022084;28;20472;-61
2023/03/04 08:20:31;;;;;;;10.70;10.20;;;;;;;;;;5013866;28;20014;-62
2023/03/04 08:22:56;;;;;;;10.68;10.18;;;;;;;;;;5009869;28;20157;-60
2023/03/04 08:25:22;;;;;;;10.52;10.02;;;;;;;;;;5005955;28;20026;-61
2023/03/04 08:27:47;;;;;;;10.77;10.27;;;;;;;;;;5013679;28;20493;-61
2023/03/04 08:30:12;;;;;;;10.50;10.00;;;;;;;;;;5012693;28;20018;-62
2023/03/04 08:32:38;;;;;;;10.77;10.27;;;;;;;;;;5000922;28;20409;-62
2023/03/04 08:35:03;;;;;;;10.30;9.80;;;;;;;;;;5005607;28;20101;-62
2023/03/04 08:37:29;;;;;;;10.90;10.40;;;;;;;;;;5013175;28;20041;-61
2023/03/04 08:39:54;;;;;;;10.32;9.82;;;;;;;;;;5013510;28;20545;-61
2023/03/04 08:42:19;;;;;;;10.40;9.90;;;;;;;;;;5013494;28;20022;-61
2023/03/04 08:44:45;;;;;;;10.30;9.80;;;;;;;;;;4999987;28;20484;-62
2023/03/04 08:47:11;;;;;;;10.57;10.07;;;;;;;;;;5007438;28;20385;-62
2023/03/04 08:49:36;;;;;;;10.57;10.07;;;;;;;;;;5010001;28;20018;-62
2023/03/04 08:52:01;;;;;;;10.63;10.13;;;;;;;;;;5011693;28;20045;-62
2023/03/04 08:54:27;;;;;;;10.07;9.65;;;;;;;;;;5013557;28;20022;-62
2023/03/04 08:56:52;;;;;;;10.38;9.88;;;;;;;;;;5013390;28;20097;-62
2023/03/04 08:59:17;;;;;;;10.90;10.40;;;;;;;;;;5008280;28;20018;-62
2023/03/04 09:01:43;;;;;;;11.35;10.85;;;;;;;;;;5010786;28;21751;-63
2023/03/04 09:04:08;;;;;;;10.90;10.40;;;;;;;;;;5010610;28;20087;-61
2023/03/04 09:06:33;;;;;;;10.23;9.75;;;;;;;;;;5012397;28;20056;-61
2023/03/04 09:08:59;;;;;;;10.82;10.32;;;;;;;;;;5007903;28;20053;-61
2023/03/04 09:11:24;;;;;;;9.98;9.57;;;;;;;;;;5012989;28;20037;-61
2023/03/04 09:13:50;;;;;;;10.32;9.82;;;;;;;;;;5013096;28;20025;-63
2023/03/04 09:16:15;;;;;;;9.60;9.20;;;;;;;;;;5011908;28;20194;-62
2023/03/04 09:18:42;;;;;;;11.10;10.60;;;;;;;;;;5013000;28;20531;-65
2023/03/04 09:21:07;;;;;;;10.65;10.15;;;;;;;;;;5009143;28;20580;-61
2023/03/04 09:23:33;;;;;;;10.48;9.98;;;;;;;;;;5013278;28;20041;-58
2023/03/04 09:25:58;;;;;;;9.93;9.52;;;;;;;;;;5013149;28;20037;-58
2023/03/04 09:28:24;;;;;;;9.95;9.55;;;;;;;;;;5013163;28;20060;-59
2023/03/04 09:30:49;;;;;;;11.20;10.70;;;;;;;;;;5011733;28;20033;-60
2023/03/04 09:33:15;;;;;;;10.45;9.95;;;;;;;;;;5002437;28;20425;-61
2023/03/04 09:35:40;;;;;;;9.98;9.57;;;;;;;;;;5003416;28;20050;-60
2023/03/04 09:38:06;;;;;;;10.30;9.80;;;;;;;;;;5011589;28;20389;-60
2023/03/04 09:40:43;;;;;;;9.70;9.30;;;;;;;;;;5009655;28;20053;-61
2023/03/04 09:43:16;;;;;;;10.27;9.77;;;;;;;;;;5000553;28;20025;-60
2023/03/04 09:45:49;;;;;;;9.68;9.27;;;;;;;;;;5012798;28;20021;-61
2023/03/04 09:48:19;;;;;;;9.55;9.15;;;;;;;;;;5001722;28;20422;-61
2023/03/04 09:50:56;;;;;;;9.93;9.52;;;;;;;;;;5012904;28;20460;-61
2023/03/04 09:53:27;;;;;;;10.55;10.05;;;;;;;;;;5012379;28;20022;-60
2023/03/04 09:55:52;;;;;;;10.55;10.05;;;;;;;;;;5012369;28;20026;-61
2023/03/04 09:58:17;;;;;;;10.60;10.10;;;;;;;;;;5012759;28;20076;-60
2023/03/04 10:00:44;;;;;;;9.80;9.40;;;;;;;;;;5008704;28;20025;-61
2023/03/04 10:03:20;;;;;;;10.65;10.15;;;;;;;;;;5005895;28;20481;-61
2023/03/04 10:05:51;;;;;;;10.20;9.70;;;;;;;;;;4999467;28;20121;-61
2023/03/04 10:08:20;;;;;;;10.40;9.90;;;;;;;;;;5012582;28;20026;-61
2023/03/04 10:10:46;;;;;;;10.60;10.10;;;;;;;;;;5010515;28;20430;-62
2023/03/04 10:13:15;;;;;;;11.98;11.38;;;;;;;;;;5007175;28;20057;-61
2023/03/04 10:15:42;;;;;;;10.30;9.80;;;;;;;;;;4999834;28;20022;-60
2023/03/04 10:18:16;;;;;;;10.95;10.35;;;;;;;;;;5022491;28;20028;-60
2023/03/04 10:21:13;;;;;;;10.60;10.10;;;;;;;;;;5013603;28;20025;-61
2023/03/04 10:23:40;;;;;;;10.02;9.52;;;;;;;;;;4999822;28;20280;-60
2023/03/04 10:26:13;;;;;;;10.40;9.90;;;;;;;;;;5011803;28;20026;-60
2023/03/04 10:28:38;;;;;;;10.18;9.68;;;;;;;;;;5007570;28;20045;-61
2023/03/04 10:31:06;;;;;;;11.38;10.77;;;;;;;;;;5000697;28;20124;-61
2023/03/04 10:33:36;;;;;;;10.00;9.50;;;;;;;;;;4998168;28;20092;-61
2023/03/04 10:36:03;;;;;;;10.57;10.07;;;;;;;;;;5000648;28;20518;-60
2023/03/04 10:38:33;;;;;;;13.07;12.30;;;;;;;;;;5005898;28;20029;-60
2023/03/04 10:40:58;;;;;;;9.45;9.05;;;;;;;;;;5010141;28;20030;-61
2023/03/04 10:43:24;;;;;;;10.40;9.90;;;;;;;;;;5004942;28;20455;-60
2023/03/04 10:45:53;;;;;;;9.43;9.02;;;;;;;;;;5008846;28;20049;-60
2023/03/04 10:48:20;;;;;;;10.55;10.05;;;;;;;;;;5011780;28;20096;-62
2023/03/04 10:50:46;;;;;;;10.52;10.02;;;;;;;;;;5011591;28;20026;-60
2023/03/04 10:53:40;;;;;;;9.77;9.32;;;;;;;;;;5011767;28;20462;-61
2023/03/04 10:56:24;;;;;;;9.82;9.32;;;;;;;;;;4995311;28;20408;-61
2023/03/04 10:58:49;;;;;;;9.83;9.33;;;;;;;;;;5010220;28;20057;-61
2023/03/04 11:01:16;;;;;;;10.25;9.75;;;;;;;;;;5011960;28;20290;-60
2023/03/04 11:03:45;;;;;;;10.15;9.65;;;;;;;;;;5005202;28;20022;-60
2023/03/04 11:06:12;;;;;;;10.10;9.60;;;;;;;;;;5011535;28;20026;-60
2023/03/04 11:08:38;;;;;;;11.25;10.65;;;;;;;;;;5011324;28;20477;-61
2023/03/04 11:11:20;;;;;;;11.30;10.70;;;;;;;;;;5009458;28;20026;-62
2023/03/04 11:13:51;;;;;;;9.50;9.10;;;;;;;;;;5004488;28;20025;-61
2023/03/04 11:16:28;;;;;;;10.00;9.50;;;;;;;;;;5016162;28;20044;-60
2023/03/04 11:18:57;;;;;;;10.18;9.68;;;;;;;;;;5004713;28;20037;-60
2023/03/04 11:21:23;;;;;;;10.30;9.80;;;;;;;;;;5011305;28;20022;-61
2023/03/04 11:23:51;;;;;;;10.10;9.60;;;;;;;;;;5012651;28;20025;-61
2023/03/04 11:26:27;;;;;;;9.18;8.77;;;;;;;;;;5014040;28;20026;-60
2023/03/04 11:28:55;;;;;;;9.48;9.07;;;;;;;;;;5014000;28;20092;-62
2023/03/04 11:31:24;;;;;;;9.80;9.30;;;;;;;;;;5015083;28;20014;-62
2023/03/04 11:33:54;;;;;;;9.20;8.80;;;;;;;;;;5012769;28;20037;-62
2023/03/04 11:36:29;;;;;;;10.68;10.18;;;;;;;;;;5007951;28;20022;-61
2023/03/04 11:38:55;;;;;;;9.57;9.18;;;;;;;;;;4996313;28;20108;-60
2023/03/04 11:41:34;;;;;;;10.43;9.93;;;;;;;;;;5006561;28;20115;-61
2023/03/04 11:43:59;;;;;;;10.18;9.68;;;;;;;;;;5014903;28;20108;-61
2023/03/04 11:46:27;;;;;;;9.38;8.98;;;;;;;;;;5015039;28;20105;-60
2023/03/04 11:48:53;;;;;;;10.25;9.75;;;;;;;;;;5024743;28;20026;-62
2023/03/04 11:51:36;;;;;;;9.70;9.30;;;;;;;;;;5018738;28;20152;-60
2023/03/04 11:54:16;;;;;;;10.40;9.90;;;;;;;;;;5002305;28;20037;-61
2023/03/04 11:56:46;;;;;;;9.90;9.40;;;;;;;;;;5006213;28;20026;-60
2023/03/04 11:59:30;;;;;;;9.50;9.10;;;;;;;;;;5014696;28;20488;-60
2023/03/04 12:02:13;;;;;;;10.27;9.77;;;;;;;;;;5014567;28;20452;-62
2023/03/04 12:04:41;;;;;;;9.35;8.95;;;;;;;;;;5001573;28;20088;-61
2023/03/04 12:07:06;;;;;;;10.00;9.50;;;;;;;;;;5014718;28;20018;-62
2023/03/04 12:09:35;;;;;;;9.98;9.48;;;;;;;;;;5014758;28;20025;-60
2023/03/04 12:12:06;;;;;;;10.30;9.80;;;;;;;;;;5014602;28;20025;-59
2023/03/04 12:14:37;;;;;;;9.52;9.13;;;;;;;;;;5013403;28;20026;-60
2023/03/04 12:17:05;;;;;;;9.63;9.23;;;;;;;;;;5016826;28;20049;-62
2023/03/04 12:19:49;;;;;;;10.27;9.77;;;;;;;;;;5015123;28;20502;-61
2023/03/04 12:22:14;;;;;;;10.07;9.57;;;;;;;;;;5010686;28;20022;-60
2023/03/04 12:24:49;;;;;;;9.65;9.25;;;;;;;;;;5013679;28;20030;-60
2023/03/04 12:27:32;;;;;;;9.45;9.05;;;;;;;;;;5006089;28;20026;-61
2023/03/04 12:30:35;;;;;;;10.05;9.55;;;;;;;;;;5014018;28;20046;-61
2023/03/04 12:33:14;;;;;;;10.18;9.68;;;;;;;;;;4950179;29;20015;-62
2023/03/04 12:35:51;;;;;;;10.35;9.85;;;;;;;;;;4952760;29;20023;-60
2023/03/04 12:38:25;;;;;;;10.52;10.02;;;;;;;;;;4990968;28;20485;-61
2023/03/04 12:40:50;;;;;;;;;;;;;;;;;;5015788;28;20389;-61
2023/03/04 12:43:16;;;;;;;11.80;11.20;;;;;;;;;;5011971;28;19916;-62
2023/03/04 12:45:44;;;;;;;10.98;10.40;;;;;;;;;;5011814;28;20275;-62
2023/03/04 12:48:15;;;;;;;10.77;10.27;;;;;;;;;;5014065;28;20405;-61
2023/03/04 12:50:46;;;;;;;10.40;9.90;;;;;;;;;;5013294;28;20018;-60
2023/03/04 12:53:16;;;;;;;10.05;9.55;;;;;;;;;;5014022;28;20021;-61
2023/03/04 12:55:43;;;;;;;10.43;9.93;;;;;;;;;;5000988;28;20022;-61
2023/03/04 12:58:35;;;;;;;10.48;9.98;;;;;;;;;;5013872;28;20022;-60
2023/03/04 13:01:19;;;;;;;10.77;10.27;;;;;;;;;;5000259;28;20044;-61
2023/03/04 13:04:08;;;;;;;10.25;9.75;;;;;;;;;;5013506;28;20080;-61
2023/03/04 13:06:33;;;;;;;10.18;9.68;;;;;;;;;;5009829;28;20072;-61
2023/03/04 13:08:59;;;;;;;10.52;10.02;;;;;;;;;;5012326;28;20109;-61
2023/03/04 13:11:27;;;;;;;10.40;9.90;;;;;;;;;;5013392;28;20026;-61
2023/03/04 13:14:13;;;;;;;9.57;9.18;;;;;;;;;;5013512;28;20132;-61
2023/03/04 13:17:00;;;;;;;9.30;8.90;;;;;;;;;;5016920;28;20052;-61
2023/03/04 13:19:44;;;;;;;10.20;9.70;;;;;;;;;;5011213;28;20034;-61
2023/03/04 13:22:26;;;;;;;9.82;9.40;;;;;;;;;;5013690;28;20621;-61
2023/03/04 13:24:52;;;;;;;9.73;9.32;;;;;;;;;;5003581;28;20052;-61
2023/03/04 13:27:36;;;;;;;10.32;9.82;;;;;;;;;;5012933;28;20025;-60
2023/03/04 13:30:02;;;;;;;;;;;;;;;;;;5013374;28;20041;-60
2023/03/04 13:32:37;;;;;;;10.25;9.75;;;;;;;;;;5007815;28;20427;-60
2023/03/04 13:35:22;;;;;;;10.05;9.55;;;;;;;;;;5006506;28;20102;-61
2023/03/04 13:37:57;;;;;;;10.15;9.65;;;;;;;;;;5007398;28;20025;-61
2023/03/04 13:40:23;;;;;;;9.88;9.38;;;;;;;;;;5008336;28;20040;-61
2023/03/04 13:42:49;;;;;;;10.35;9.85;;;;;;;;;;4997829;28;20018;-60
2023/03/04 13:45:28;;;;;;;10.85;10.35;;;;;;;;;;5010711;28;20084;-60
2023/03/04 13:47:54;;;;;;;10.40;9.90;;;;;;;;;;4998448;28;20038;-61
2023/03/04 13:50:32;;;;;;;9.90;9.43;;;;;;;;;;5009275;28;20025;-60
2023/03/04 13:53:22;;;;;;;10.50;10.00;;;;;;;;;;5011692;28;20026;-60
2023/03/04 13:56:06;;;;;;;10.57;10.07;;;;;;;;;;5003056;28;20080;-61
2023/03/04 13:58:32;;;;;;;10.38;9.88;;;;;;;;;;5011126;28;20512;-61
2023/03/04 14:00:57;;;;;;;10.38;9.88;;;;;;;;;;5010903;28;20030;-61
2023/03/04 14:03:24;;;;;;;10.00;9.50;;;;;;;;;;5017626;28;20412;-61
2023/03/04 14:06:28;;;;;;;11.48;10.88;;;;;;;;;;5010513;28;20102;-60
2023/03/04 14:08:54;;;;;;;10.40;9.90;;;;;;;;;;4930015;29;20024;-62
2023/03/04 14:11:25;;;;;;;10.27;9.77;;;;;;;;;;4931262;29;20031;-61
2023/03/04 14:13:51;;;;;;;10.43;9.93;;;;;;;;;;4974223;28;20084;-60
2023/03/04 14:16:20;;;;;;;11.27;10.68;;;;;;;;;;5013869;28;20224;-61
2023/03/04 14:18:55;;;;;;;10.07;9.57;;;;;;;;;;5010895;28;20075;-64
2023/03/04 14:21:20;;;;;;;9.32;8.93;;;;;;;;;;5010245;28;20065;-62
2023/03/04 14:23:45;;;;;;;10.15;9.65;;;;;;;;;;5009378;28;20095;-63
2023/03/04 14:26:12;;;;;;;10.70;10.20;;;;;;;;;;5010665;28;20026;-61
2023/03/04 14:28:42;;;;;;;10.32;9.82;;;;;;;;;;5002164;28;20053;-62
2023/03/04 14:31:13;;;;;;;10.77;10.27;;;;;;;;;;5010533;28;20170;-61
2023/03/04 14:33:42;;;;;;;11.02;10.48;;;;;;;;;;5010637;28;20021;-60
2023/03/04 14:36:14;;;;;;;10.20;9.70;;;;;;;;;;4992148;28;20108;-61
2023/03/04 14:38:42;;;;;;;10.30;9.80;;;;;;;;;;5008636;28;20030;-61
2023/03/04 14:41:15;;;;;;;10.82;10.32;;;;;;;;;;5009704;28;20037;-59